sensor_id;sensor_type;location;lat;lon;timestamp;P1;durP1;ratioP1;P2;durP2;ratioP2
34405;SDS011;20658;45.630;8.886;2023-09-18T00:00:11;13.18;;;7.10;;
34405;SDS011;20658;45.630;8.886;2023-09-18T00:02:40;15.02;;;7.18;;
34405;SDS011;20658;45.630;8.886;2023-09-18T00:05:09;14.98;;;7.75;;
34405;SDS011;20658;45.630;8.886;2023-09-18T00:07:40;13.35;;;7.22;;
34405;SDS011;20658;45.630;8.886;2023-09-18T00:10:10;17.55;;;8.23;;
34405;SDS011;20658;45.630;8.886;2023-09-18T00:12:39;13.68;;;7.03;;
34405;SDS011;20658;45.630;8.886;2023-09-18T00:15:08;16.27;;;7.07;;
34405;SDS011;20658;45.630;8.886;2023-09-18T00:17:39;15.35;;;7.22;;
34405;SDS011;20658;45.630;8.886;2023-09-18T00:20:07;12.15;;;6.85;;
34405;SDS011;20658;45.630;8.886;2023-09-18T00:22:36;14.70;;;6.82;;
34405;SDS011;20658;45.630;8.886;2023-09-18T00:25:05;17.58;;;6.85;;
34405;SDS011;20658;45.630;8.886;2023-09-18T00:27:34;13.75;;;7.20;;
34405;SDS011;20658;45.630;8.886;2023-09-18T00:30:04;12.30;;;6.38;;
34405;SDS011;20658;45.630;8.886;2023-09-18T00:32:36;14.75;;;7.03;;
34405;SDS011;20658;45.630;8.886;2023-09-18T00:35:05;13.63;;;6.70;;
34405;SDS011;20658;45.630;8.886;2023-09-18T00:37:35;11.63;;;6.47;;
34405;SDS011;20658;45.630;8.886;2023-09-18T00:40:07;15.02;;;7.07;;
34405;SDS011;20658;45.630;8.886;2023-09-18T00:42:37;16.58;;;7.22;;
34405;SDS011;20658;45.630;8.886;2023-09-18T00:45:06;11.65;;;7.35;;
34405;SDS011;20658;45.630;8.886;2023-09-18T00:47:37;13.57;;;6.72;;
34405;SDS011;20658;45.630;8.886;2023-09-18T00:50:06;14.30;;;7.28;;
34405;SDS011;20658;45.630;8.886;2023-09-18T00:52:39;14.57;;;6.70;;
34405;SDS011;20658;45.630;8.886;2023-09-18T00:55:09;20.13;;;7.88;;
34405;SDS011;20658;45.630;8.886;2023-09-18T00:57:40;15.75;;;6.57;;
34405;SDS011;20658;45.630;8.886;2023-09-18T01:00:09;13.20;;;7.43;;
34405;SDS011;20658;45.630;8.886;2023-09-18T01:02:43;16.60;;;7.43;;
34405;SDS011;20658;45.630;8.886;2023-09-18T01:05:13;15.00;;;6.88;;
34405;SDS011;20658;45.630;8.886;2023-09-18T01:07:43;20.88;;;6.68;;
34405;SDS011;20658;45.630;8.886;2023-09-18T01:10:12;13.00;;;6.35;;
34405;SDS011;20658;45.630;8.886;2023-09-18T01:12:44;17.63;;;6.70;;
34405;SDS011;20658;45.630;8.886;2023-09-18T01:15:26;18.02;;;7.00;;
34405;SDS011;20658;45.630;8.886;2023-09-18T01:18:01;17.42;;;6.75;;
34405;SDS011;20658;45.630;8.886;2023-09-18T01:20:30;12.90;;;6.65;;
34405;SDS011;20658;45.630;8.886;2023-09-18T01:23:00;13.07;;;6.80;;
34405;SDS011;20658;45.630;8.886;2023-09-18T01:25:30;20.13;;;7.22;;
34405;SDS011;20658;45.630;8.886;2023-09-18T01:27:59;15.45;;;6.22;;
34405;SDS011;20658;45.630;8.886;2023-09-18T01:30:29;12.55;;;6.72;;
34405;SDS011;20658;45.630;8.886;2023-09-18T01:32:57;14.30;;;7.10;;
34405;SDS011;20658;45.630;8.886;2023-09-18T01:35:27;12.60;;;7.05;;
34405;SDS011;20658;45.630;8.886;2023-09-18T01:37:58;16.02;;;7.05;;
34405;SDS011;20658;45.630;8.886;2023-09-18T01:42:58;15.43;;;6.88;;
34405;SDS011;20658;45.630;8.886;2023-09-18T01:45:27;17.55;;;8.20;;
34405;SDS011;20658;45.630;8.886;2023-09-18T01:47:57;14.10;;;7.07;;
34405;SDS011;20658;45.630;8.886;2023-09-18T01:50:26;20.27;;;7.57;;
34405;SDS011;20658;45.630;8.886;2023-09-18T01:52:56;15.55;;;7.65;;
34405;SDS011;20658;45.630;8.886;2023-09-18T01:55:27;14.82;;;7.68;;
34405;SDS011;20658;45.630;8.886;2023-09-18T01:57:56;19.23;;;8.02;;
34405;SDS011;20658;45.630;8.886;2023-09-18T02:00:25;16.88;;;8.60;;
34405;SDS011;20658;45.630;8.886;2023-09-18T02:02:54;19.70;;;7.55;;
34405;SDS011;20658;45.630;8.886;2023-09-18T02:05:23;12.80;;;7.25;;
34405;SDS011;20658;45.630;8.886;2023-09-18T02:07:52;13.60;;;7.38;;
34405;SDS011;20658;45.630;8.886;2023-09-18T02:10:20;12.65;;;5.97;;
34405;SDS011;20658;45.630;8.886;2023-09-18T02:12:50;13.88;;;7.13;;
34405;SDS011;20658;45.630;8.886;2023-09-18T02:15:19;13.02;;;7.07;;
34405;SDS011;20658;45.630;8.886;2023-09-18T02:17:48;16.52;;;7.28;;
34405;SDS011;20658;45.630;8.886;2023-09-18T02:20:16;15.75;;;6.40;;
34405;SDS011;20658;45.630;8.886;2023-09-18T02:22:45;14.60;;;7.18;;
34405;SDS011;20658;45.630;8.886;2023-09-18T02:25:15;19.55;;;6.28;;
34405;SDS011;20658;45.630;8.886;2023-09-18T02:27:44;15.35;;;7.03;;
34405;SDS011;20658;45.630;8.886;2023-09-18T02:30:15;19.17;;;7.18;;
34405;SDS011;20658;45.630;8.886;2023-09-18T02:35:14;16.63;;;7.57;;
34405;SDS011;20658;45.630;8.886;2023-09-18T02:37:43;15.30;;;6.32;;
34405;SDS011;20658;45.630;8.886;2023-09-18T02:40:11;18.48;;;6.28;;
34405;SDS011;20658;45.630;8.886;2023-09-18T02:42:40;15.60;;;6.72;;
34405;SDS011;20658;45.630;8.886;2023-09-18T02:45:09;12.38;;;7.10;;
34405;SDS011;20658;45.630;8.886;2023-09-18T02:47:39;19.63;;;6.60;;
34405;SDS011;20658;45.630;8.886;2023-09-18T02:50:08;14.50;;;6.38;;
34405;SDS011;20658;45.630;8.886;2023-09-18T02:52:38;10.75;;;6.30;;
34405;SDS011;20658;45.630;8.886;2023-09-18T02:55:07;21.25;;;8.20;;
34405;SDS011;20658;45.630;8.886;2023-09-18T02:57:37;15.18;;;7.28;;
34405;SDS011;20658;45.630;8.886;2023-09-18T03:00:06;10.63;;;6.22;;
34405;SDS011;20658;45.630;8.886;2023-09-18T03:02:36;13.48;;;6.95;;
34405;SDS011;20658;45.630;8.886;2023-09-18T03:05:06;16.60;;;7.38;;
34405;SDS011;20658;45.630;8.886;2023-09-18T03:07:36;14.55;;;7.47;;
34405;SDS011;20658;45.630;8.886;2023-09-18T03:10:05;16.75;;;7.32;;
34405;SDS011;20658;45.630;8.886;2023-09-18T03:12:47;13.73;;;7.18;;
34405;SDS011;20658;45.630;8.886;2023-09-18T03:15:21;19.40;;;7.80;;
34405;SDS011;20658;45.630;8.886;2023-09-18T03:17:50;12.88;;;7.15;;
34405;SDS011;20658;45.630;8.886;2023-09-18T03:20:21;12.70;;;6.80;;
34405;SDS011;20658;45.630;8.886;2023-09-18T03:22:50;18.20;;;7.60;;
34405;SDS011;20658;45.630;8.886;2023-09-18T03:25:19;16.17;;;7.30;;
34405;SDS011;20658;45.630;8.886;2023-09-18T03:27:47;12.57;;;6.50;;
34405;SDS011;20658;45.630;8.886;2023-09-18T03:30:18;18.07;;;7.63;;
34405;SDS011;20658;45.630;8.886;2023-09-18T03:32:48;18.95;;;6.47;;
34405;SDS011;20658;45.630;8.886;2023-09-18T03:35:18;18.73;;;7.18;;
34405;SDS011;20658;45.630;8.886;2023-09-18T03:37:49;13.27;;;6.90;;
34405;SDS011;20658;45.630;8.886;2023-09-18T03:40:25;14.77;;;7.13;;
34405;SDS011;20658;45.630;8.886;2023-09-18T03:42:54;14.77;;;7.63;;
34405;SDS011;20658;45.630;8.886;2023-09-18T03:45:22;13.48;;;6.55;;
34405;SDS011;20658;45.630;8.886;2023-09-18T03:47:51;19.02;;;7.88;;
34405;SDS011;20658;45.630;8.886;2023-09-18T03:50:21;14.95;;;7.15;;
34405;SDS011;20658;45.630;8.886;2023-09-18T03:52:50;19.05;;;7.93;;
34405;SDS011;20658;45.630;8.886;2023-09-18T03:55:24;14.05;;;6.95;;
34405;SDS011;20658;45.630;8.886;2023-09-18T03:57:53;15.73;;;7.07;;
34405;SDS011;20658;45.630;8.886;2023-09-18T04:00:22;12.52;;;6.72;;
34405;SDS011;20658;45.630;8.886;2023-09-18T04:02:51;18.88;;;7.50;;
34405;SDS011;20658;45.630;8.886;2023-09-18T04:05:27;17.70;;;6.70;;
34405;SDS011;20658;45.630;8.886;2023-09-18T04:07:56;15.18;;;7.40;;
34405;SDS011;20658;45.630;8.886;2023-09-18T04:10:25;14.30;;;7.35;;
34405;SDS011;20658;45.630;8.886;2023-09-18T04:12:54;14.70;;;7.78;;
34405;SDS011;20658;45.630;8.886;2023-09-18T04:15:22;13.75;;;6.93;;
34405;SDS011;20658;45.630;8.886;2023-09-18T04:17:52;14.60;;;7.00;;
34405;SDS011;20658;45.630;8.886;2023-09-18T04:20:20;15.55;;;7.47;;
34405;SDS011;20658;45.630;8.886;2023-09-18T04:25:50;15.55;;;7.75;;
34405;SDS011;20658;45.630;8.886;2023-09-18T04:28:24;13.93;;;7.47;;
34405;SDS011;20658;45.630;8.886;2023-09-18T04:30:55;17.27;;;7.40;;
34405;SDS011;20658;45.630;8.886;2023-09-18T04:33:24;17.90;;;8.65;;
34405;SDS011;20658;45.630;8.886;2023-09-18T04:35:55;16.38;;;7.82;;
34405;SDS011;20658;45.630;8.886;2023-09-18T04:38:31;16.60;;;8.23;;
34405;SDS011;20658;45.630;8.886;2023-09-18T04:41:04;19.80;;;7.47;;
34405;SDS011;20658;45.630;8.886;2023-09-18T04:43:34;16.30;;;7.75;;
34405;SDS011;20658;45.630;8.886;2023-09-18T04:46:07;18.30;;;7.88;;
34405;SDS011;20658;45.630;8.886;2023-09-18T04:48:36;11.32;;;8.13;;
34405;SDS011;20658;45.630;8.886;2023-09-18T04:51:05;14.25;;;7.32;;
34405;SDS011;20658;45.630;8.886;2023-09-18T04:53:35;16.83;;;8.32;;
34405;SDS011;20658;45.630;8.886;2023-09-18T04:56:08;17.55;;;7.95;;
34405;SDS011;20658;45.630;8.886;2023-09-18T04:58:37;16.15;;;8.35;;
34405;SDS011;20658;45.630;8.886;2023-09-18T05:01:11;14.30;;;7.68;;
34405;SDS011;20658;45.630;8.886;2023-09-18T05:03:40;19.58;;;8.80;;
34405;SDS011;20658;45.630;8.886;2023-09-18T05:06:14;13.85;;;8.45;;
34405;SDS011;20658;45.630;8.886;2023-09-18T05:08:50;18.85;;;9.75;;
34405;SDS011;20658;45.630;8.886;2023-09-18T05:11:24;20.23;;;9.80;;
34405;SDS011;20658;45.630;8.886;2023-09-18T05:13:58;18.50;;;8.93;;
34405;SDS011;20658;45.630;8.886;2023-09-18T05:16:26;17.83;;;9.38;;
34405;SDS011;20658;45.630;8.886;2023-09-18T05:19:01;18.08;;;8.70;;
34405;SDS011;20658;45.630;8.886;2023-09-18T05:21:29;17.23;;;8.18;;
34405;SDS011;20658;45.630;8.886;2023-09-18T05:24:04;18.48;;;8.80;;
34405;SDS011;20658;45.630;8.886;2023-09-18T05:26:33;17.77;;;8.90;;
34405;SDS011;20658;45.630;8.886;2023-09-18T05:29:01;16.33;;;8.32;;
34405;SDS011;20658;45.630;8.886;2023-09-18T05:31:30;15.10;;;8.00;;
34405;SDS011;20658;45.630;8.886;2023-09-18T05:34:04;11.73;;;7.82;;
34405;SDS011;20658;45.630;8.886;2023-09-18T05:36:32;17.08;;;8.68;;
34405;SDS011;20658;45.630;8.886;2023-09-18T05:39:00;16.25;;;8.30;;
34405;SDS011;20658;45.630;8.886;2023-09-18T05:41:36;19.70;;;8.35;;
34405;SDS011;20658;45.630;8.886;2023-09-18T05:44:05;16.80;;;8.93;;
34405;SDS011;20658;45.630;8.886;2023-09-18T05:46:38;16.83;;;9.15;;
34405;SDS011;20658;45.630;8.886;2023-09-18T05:49:07;18.73;;;8.77;;
34405;SDS011;20658;45.630;8.886;2023-09-18T05:51:36;18.80;;;9.02;;
34405;SDS011;20658;45.630;8.886;2023-09-18T05:54:05;19.90;;;10.02;;
34405;SDS011;20658;45.630;8.886;2023-09-18T05:56:33;18.77;;;9.77;;
34405;SDS011;20658;45.630;8.886;2023-09-18T05:59:08;22.13;;;11.65;;
34405;SDS011;20658;45.630;8.886;2023-09-18T06:01:42;24.10;;;13.43;;
34405;SDS011;20658;45.630;8.886;2023-09-18T06:04:10;24.80;;;14.57;;
34405;SDS011;20658;45.630;8.886;2023-09-18T06:06:44;27.27;;;16.02;;
34405;SDS011;20658;45.630;8.886;2023-09-18T06:09:12;27.73;;;15.98;;
34405;SDS011;20658;45.630;8.886;2023-09-18T06:11:42;29.65;;;17.33;;
34405;SDS011;20658;45.630;8.886;2023-09-18T06:14:12;29.40;;;18.85;;
34405;SDS011;20658;45.630;8.886;2023-09-18T06:16:45;29.15;;;17.42;;
34405;SDS011;20658;45.630;8.886;2023-09-18T06:19:14;26.63;;;16.73;;
34405;SDS011;20658;45.630;8.886;2023-09-18T06:21:43;27.42;;;16.20;;
34405;SDS011;20658;45.630;8.886;2023-09-18T06:24:12;27.75;;;18.08;;
34405;SDS011;20658;45.630;8.886;2023-09-18T06:26:40;29.52;;;17.25;;
34405;SDS011;20658;45.630;8.886;2023-09-18T06:29:10;30.75;;;17.42;;
34405;SDS011;20658;45.630;8.886;2023-09-18T06:31:39;35.38;;;16.13;;
34405;SDS011;20658;45.630;8.886;2023-09-18T06:34:08;27.35;;;18.05;;
34405;SDS011;20658;45.630;8.886;2023-09-18T06:36:36;27.88;;;19.58;;
34405;SDS011;20658;45.630;8.886;2023-09-18T06:39:05;30.80;;;21.08;;
34405;SDS011;20658;45.630;8.886;2023-09-18T06:41:39;32.90;;;24.67;;
34405;SDS011;20658;45.630;8.886;2023-09-18T06:44:12;37.00;;;25.15;;
34405;SDS011;20658;45.630;8.886;2023-09-18T06:46:45;38.15;;;28.40;;
34405;SDS011;20658;45.630;8.886;2023-09-18T06:49:14;45.30;;;30.25;;
34405;SDS011;20658;45.630;8.886;2023-09-18T06:51:42;43.35;;;31.77;;
34405;SDS011;20658;45.630;8.886;2023-09-18T06:54:16;43.78;;;34.33;;
34405;SDS011;20658;45.630;8.886;2023-09-18T06:56:44;49.80;;;36.35;;
34405;SDS011;20658;45.630;8.886;2023-09-18T06:59:19;53.88;;;40.90;;
34405;SDS011;20658;45.630;8.886;2023-09-18T07:01:53;56.65;;;42.53;;
34405;SDS011;20658;45.630;8.886;2023-09-18T07:04:21;54.38;;;41.53;;
34405;SDS011;20658;45.630;8.886;2023-09-18T07:06:50;61.80;;;46.05;;
34405;SDS011;20658;45.630;8.886;2023-09-18T07:09:19;61.30;;;50.20;;
34405;SDS011;20658;45.630;8.886;2023-09-18T07:11:49;72.90;;;53.55;;
34405;SDS011;20658;45.630;8.886;2023-09-18T07:14:19;68.43;;;55.60;;
34405;SDS011;20658;45.630;8.886;2023-09-18T07:16:53;73.05;;;55.05;;
34405;SDS011;20658;45.630;8.886;2023-09-18T07:19:21;72.65;;;57.83;;
34405;SDS011;20658;45.630;8.886;2023-09-18T07:21:50;72.53;;;57.30;;
34405;SDS011;20658;45.630;8.886;2023-09-18T07:24:18;74.32;;;59.95;;
34405;SDS011;20658;45.630;8.886;2023-09-18T07:26:52;88.30;;;62.78;;
34405;SDS011;20658;45.630;8.886;2023-09-18T07:29:22;73.18;;;59.95;;
34405;SDS011;20658;45.630;8.886;2023-09-18T07:31:51;80.70;;;60.33;;
34405;SDS011;20658;45.630;8.886;2023-09-18T07:34:20;81.53;;;63.75;;
34405;SDS011;20658;45.630;8.886;2023-09-18T07:36:53;83.22;;;65.78;;
34405;SDS011;20658;45.630;8.886;2023-09-18T07:39:23;84.88;;;67.00;;
34405;SDS011;20658;45.630;8.886;2023-09-18T07:41:51;87.15;;;68.82;;
34405;SDS011;20658;45.630;8.886;2023-09-18T07:44:26;89.63;;;69.03;;
34405;SDS011;20658;45.630;8.886;2023-09-18T07:47:00;86.20;;;68.55;;
34405;SDS011;20658;45.630;8.886;2023-09-18T07:49:29;100.03;;;71.10;;
34405;SDS011;20658;45.630;8.886;2023-09-18T07:51:57;83.35;;;67.97;;
34405;SDS011;20658;45.630;8.886;2023-09-18T07:54:30;88.95;;;72.13;;
34405;SDS011;20658;45.630;8.886;2023-09-18T07:56:59;94.65;;;73.28;;
34405;SDS011;20658;45.630;8.886;2023-09-18T07:59:29;89.57;;;72.57;;
34405;SDS011;20658;45.630;8.886;2023-09-18T08:01:57;95.55;;;76.72;;
34405;SDS011;20658;45.630;8.886;2023-09-18T08:04:26;97.85;;;76.32;;
34405;SDS011;20658;45.630;8.886;2023-09-18T08:06:59;94.97;;;76.07;;
34405;SDS011;20658;45.630;8.886;2023-09-18T08:09:28;98.53;;;76.32;;
34405;SDS011;20658;45.630;8.886;2023-09-18T08:12:02;102.10;;;79.93;;
34405;SDS011;20658;45.630;8.886;2023-09-18T08:14:37;96.82;;;74.28;;
34405;SDS011;20658;45.630;8.886;2023-09-18T08:17:05;94.63;;;76.78;;
34405;SDS011;20658;45.630;8.886;2023-09-18T08:19:34;92.47;;;73.82;;
34405;SDS011;20658;45.630;8.886;2023-09-18T08:22:08;94.22;;;71.68;;
34405;SDS011;20658;45.630;8.886;2023-09-18T08:24:38;91.85;;;73.82;;
34405;SDS011;20658;45.630;8.886;2023-09-18T08:27:06;96.20;;;73.80;;
34405;SDS011;20658;45.630;8.886;2023-09-18T08:29:41;91.60;;;72.35;;
34405;SDS011;20658;45.630;8.886;2023-09-18T08:32:15;95.07;;;72.32;;
34405;SDS011;20658;45.630;8.886;2023-09-18T08:34:43;88.93;;;70.10;;
34405;SDS011;20658;45.630;8.886;2023-09-18T08:37:17;86.35;;;72.10;;
34405;SDS011;20658;45.630;8.886;2023-09-18T08:39:50;89.63;;;69.70;;
34405;SDS011;20658;45.630;8.886;2023-09-18T08:42:19;79.70;;;68.10;;
34405;SDS011;20658;45.630;8.886;2023-09-18T08:44:55;92.50;;;70.03;;
34405;SDS011;20658;45.630;8.886;2023-09-18T08:47:27;86.22;;;66.50;;
34405;SDS011;20658;45.630;8.886;2023-09-18T08:49:56;78.78;;;65.10;;
34405;SDS011;20658;45.630;8.886;2023-09-18T08:52:28;82.22;;;64.55;;
34405;SDS011;20658;45.630;8.886;2023-09-18T08:54:57;83.68;;;63.35;;
34405;SDS011;20658;45.630;8.886;2023-09-18T08:57:27;77.95;;;61.97;;
34405;SDS011;20658;45.630;8.886;2023-09-18T09:00:05;72.90;;;59.05;;
34405;SDS011;20658;45.630;8.886;2023-09-18T09:02:38;70.30;;;55.72;;
34405;SDS011;20658;45.630;8.886;2023-09-18T09:05:06;71.65;;;57.53;;
34405;SDS011;20658;45.630;8.886;2023-09-18T09:07:35;63.85;;;53.70;;
34405;SDS011;20658;45.630;8.886;2023-09-18T09:10:03;64.40;;;54.33;;
34405;SDS011;20658;45.630;8.886;2023-09-18T09:12:49;64.03;;;52.65;;
34405;SDS011;20658;45.630;8.886;2023-09-18T09:15:22;62.90;;;50.88;;
34405;SDS011;20658;45.630;8.886;2023-09-18T09:18:02;66.47;;;51.47;;
34405;SDS011;20658;45.630;8.886;2023-09-18T09:20:32;59.80;;;51.47;;
34405;SDS011;20658;45.630;8.886;2023-09-18T09:23:08;60.70;;;51.75;;
34405;SDS011;20658;45.630;8.886;2023-09-18T09:25:42;58.80;;;49.42;;
34405;SDS011;20658;45.630;8.886;2023-09-18T09:28:11;59.38;;;49.95;;
34405;SDS011;20658;45.630;8.886;2023-09-18T09:30:46;58.13;;;47.30;;
34405;SDS011;20658;45.630;8.886;2023-09-18T09:33:14;58.10;;;47.72;;
34405;SDS011;20658;45.630;8.886;2023-09-18T09:35:43;58.28;;;50.75;;
34405;SDS011;20658;45.630;8.886;2023-09-18T09:38:12;59.58;;;48.67;;
34405;SDS011;20658;45.630;8.886;2023-09-18T09:40:42;63.55;;;49.88;;
34405;SDS011;20658;45.630;8.886;2023-09-18T09:43:16;54.25;;;47.47;;
34405;SDS011;20658;45.630;8.886;2023-09-18T09:45:56;59.33;;;50.08;;
34405;SDS011;20658;45.630;8.886;2023-09-18T09:48:30;53.15;;;47.10;;
34405;SDS011;20658;45.630;8.886;2023-09-18T09:51:04;55.97;;;48.45;;
34405;SDS011;20658;45.630;8.886;2023-09-18T09:53:42;54.75;;;47.95;;
34405;SDS011;20658;45.630;8.886;2023-09-18T09:56:13;56.58;;;46.17;;
34405;SDS011;20658;45.630;8.886;2023-09-18T09:59:00;51.35;;;45.60;;
34405;SDS011;20658;45.630;8.886;2023-09-18T10:01:35;55.10;;;47.53;;
34405;SDS011;20658;45.630;8.886;2023-09-18T10:04:05;58.47;;;49.08;;
34405;SDS011;20658;45.630;8.886;2023-09-18T10:06:40;55.75;;;48.83;;
34405;SDS011;20658;45.630;8.886;2023-09-18T10:09:12;60.00;;;48.55;;
34405;SDS011;20658;45.630;8.886;2023-09-18T10:11:44;56.33;;;48.90;;
34405;SDS011;20658;45.630;8.886;2023-09-18T10:14:18;60.65;;;47.83;;
34405;SDS011;20658;45.630;8.886;2023-09-18T10:16:50;52.75;;;46.50;;
34405;SDS011;20658;45.630;8.886;2023-09-18T10:19:24;57.38;;;48.47;;
34405;SDS011;20658;45.630;8.886;2023-09-18T10:22:06;53.13;;;47.35;;
34405;SDS011;20658;45.630;8.886;2023-09-18T10:24:43;56.55;;;48.28;;
34405;SDS011;20658;45.630;8.886;2023-09-18T10:27:20;56.50;;;48.53;;
34405;SDS011;20658;45.630;8.886;2023-09-18T10:29:52;59.28;;;46.80;;
34405;SDS011;20658;45.630;8.886;2023-09-18T10:32:23;55.58;;;46.72;;
34405;SDS011;20658;45.630;8.886;2023-09-18T10:35:00;60.92;;;46.35;;
34405;SDS011;20658;45.630;8.886;2023-09-18T10:37:29;53.78;;;45.10;;
34405;SDS011;20658;45.630;8.886;2023-09-18T10:40:05;51.42;;;45.33;;
34405;SDS011;20658;45.630;8.886;2023-09-18T10:42:41;49.78;;;42.13;;
34405;SDS011;20658;45.630;8.886;2023-09-18T10:45:10;49.92;;;41.03;;
34405;SDS011;20658;45.630;8.886;2023-09-18T10:47:44;50.75;;;41.28;;
34405;SDS011;20658;45.630;8.886;2023-09-18T10:50:22;49.72;;;38.40;;
34405;SDS011;20658;45.630;8.886;2023-09-18T10:52:56;48.47;;;39.95;;
34405;SDS011;20658;45.630;8.886;2023-09-18T10:55:30;44.40;;;36.92;;
34405;SDS011;20658;45.630;8.886;2023-09-18T10:58:05;46.85;;;36.17;;
34405;SDS011;20658;45.630;8.886;2023-09-18T11:00:40;47.60;;;37.55;;
34405;SDS011;20658;45.630;8.886;2023-09-18T11:03:12;47.75;;;36.42;;
34405;SDS011;20658;45.630;8.886;2023-09-18T11:05:49;41.80;;;34.63;;
34405;SDS011;20658;45.630;8.886;2023-09-18T11:08:32;45.58;;;35.70;;
34405;SDS011;20658;45.630;8.886;2023-09-18T11:11:02;43.40;;;34.10;;
34405;SDS011;20658;45.630;8.886;2023-09-18T11:13:44;44.00;;;34.05;;
34405;SDS011;20658;45.630;8.886;2023-09-18T11:16:34;39.80;;;34.10;;
34405;SDS011;20658;45.630;8.886;2023-09-18T11:19:12;44.70;;;33.70;;
34405;SDS011;20658;45.630;8.886;2023-09-18T11:21:46;43.22;;;33.45;;
34405;SDS011;20658;45.630;8.886;2023-09-18T11:24:16;43.80;;;33.38;;
34405;SDS011;20658;45.630;8.886;2023-09-18T11:26:49;44.17;;;33.85;;
34405;SDS011;20658;45.630;8.886;2023-09-18T11:29:24;42.03;;;34.10;;
34405;SDS011;20658;45.630;8.886;2023-09-18T11:32:00;42.85;;;34.97;;
34405;SDS011;20658;45.630;8.886;2023-09-18T11:34:31;40.40;;;32.85;;
34405;SDS011;20658;45.630;8.886;2023-09-18T11:39:33;38.83;;;33.92;;
34405;SDS011;20658;45.630;8.886;2023-09-18T11:42:07;37.50;;;32.58;;
34405;SDS011;20658;45.630;8.886;2023-09-18T11:44:42;42.20;;;33.42;;
34405;SDS011;20658;45.630;8.886;2023-09-18T11:47:19;41.88;;;35.20;;
34405;SDS011;20658;45.630;8.886;2023-09-18T11:49:54;39.60;;;33.20;;
34405;SDS011;20658;45.630;8.886;2023-09-18T11:52:26;44.10;;;33.53;;
34405;SDS011;20658;45.630;8.886;2023-09-18T11:55:01;41.55;;;33.20;;
34405;SDS011;20658;45.630;8.886;2023-09-18T11:57:34;38.08;;;31.58;;
34405;SDS011;20658;45.630;8.886;2023-09-18T12:00:04;41.72;;;31.50;;
34405;SDS011;20658;45.630;8.886;2023-09-18T12:02:38;41.53;;;31.52;;
34405;SDS011;20658;45.630;8.886;2023-09-18T12:05:14;41.03;;;31.75;;
34405;SDS011;20658;45.630;8.886;2023-09-18T12:07:44;38.20;;;29.83;;
34405;SDS011;20658;45.630;8.886;2023-09-18T12:10:16;41.20;;;30.10;;
34405;SDS011;20658;45.630;8.886;2023-09-18T12:12:53;48.13;;;31.00;;
34405;SDS011;20658;45.630;8.886;2023-09-18T12:15:27;35.22;;;28.02;;
34405;SDS011;20658;45.630;8.886;2023-09-18T12:17:56;37.45;;;28.38;;
34405;SDS011;20658;45.630;8.886;2023-09-18T12:20:43;38.00;;;26.40;;
34405;SDS011;20658;45.630;8.886;2023-09-18T12:23:13;42.08;;;26.25;;
34405;SDS011;20658;45.630;8.886;2023-09-18T12:25:44;39.88;;;25.38;;
34405;SDS011;20658;45.630;8.886;2023-09-18T12:28:15;34.65;;;22.80;;
34405;SDS011;20658;45.630;8.886;2023-09-18T12:30:50;43.03;;;23.00;;
34405;SDS011;20658;45.630;8.886;2023-09-18T12:33:22;33.78;;;22.58;;
34405;SDS011;20658;45.630;8.886;2023-09-18T12:35:58;39.35;;;22.35;;
34405;SDS011;20658;45.630;8.886;2023-09-18T12:38:31;34.95;;;21.40;;
34405;SDS011;20658;45.630;8.886;2023-09-18T12:41:01;31.55;;;21.80;;
34405;SDS011;20658;45.630;8.886;2023-09-18T12:43:34;33.67;;;22.65;;
34405;SDS011;20658;45.630;8.886;2023-09-18T12:46:04;33.92;;;20.63;;
34405;SDS011;20658;45.630;8.886;2023-09-18T12:48:36;33.30;;;21.27;;
34405;SDS011;20658;45.630;8.886;2023-09-18T12:51:09;31.10;;;21.88;;
34405;SDS011;20658;45.630;8.886;2023-09-18T12:53:43;33.15;;;20.88;;
34405;SDS011;20658;45.630;8.886;2023-09-18T12:56:12;37.65;;;21.70;;
34405;SDS011;20658;45.630;8.886;2023-09-18T12:58:46;28.08;;;19.77;;
34405;SDS011;20658;45.630;8.886;2023-09-18T13:01:20;40.25;;;21.20;;
34405;SDS011;20658;45.630;8.886;2023-09-18T13:03:54;35.45;;;22.15;;
34405;SDS011;20658;45.630;8.886;2023-09-18T13:06:24;37.97;;;21.42;;
34405;SDS011;20658;45.630;8.886;2023-09-18T13:08:53;37.75;;;20.85;;
34405;SDS011;20658;45.630;8.886;2023-09-18T13:11:22;35.50;;;20.15;;
34405;SDS011;20658;45.630;8.886;2023-09-18T13:13:57;30.70;;;20.98;;
34405;SDS011;20658;45.630;8.886;2023-09-18T13:16:26;34.28;;;20.77;;
34405;SDS011;20658;45.630;8.886;2023-09-18T13:18:56;34.53;;;21.17;;
34405;SDS011;20658;45.630;8.886;2023-09-18T13:21:37;39.00;;;20.95;;
34405;SDS011;20658;45.630;8.886;2023-09-18T13:24:28;42.83;;;19.90;;
34405;SDS011;20658;45.630;8.886;2023-09-18T13:26:57;32.90;;;19.92;;
34405;SDS011;20658;45.630;8.886;2023-09-18T13:29:32;33.47;;;19.17;;
34405;SDS011;20658;45.630;8.886;2023-09-18T13:32:05;36.60;;;20.17;;
34405;SDS011;20658;45.630;8.886;2023-09-18T13:34:34;29.70;;;18.95;;
34405;SDS011;20658;45.630;8.886;2023-09-18T13:37:10;29.80;;;18.90;;
34405;SDS011;20658;45.630;8.886;2023-09-18T13:39:40;30.63;;;18.17;;
34405;SDS011;20658;45.630;8.886;2023-09-18T13:42:14;35.88;;;18.48;;
34405;SDS011;20658;45.630;8.886;2023-09-18T13:44:52;27.60;;;17.40;;
34405;SDS011;20658;45.630;8.886;2023-09-18T13:47:24;28.83;;;18.88;;
34405;SDS011;20658;45.630;8.886;2023-09-18T13:49:53;33.45;;;19.30;;
34405;SDS011;20658;45.630;8.886;2023-09-18T13:52:27;36.58;;;19.23;;
34405;SDS011;20658;45.630;8.886;2023-09-18T13:55:02;35.00;;;21.02;;
34405;SDS011;20658;45.630;8.886;2023-09-18T13:57:32;32.20;;;19.63;;
34405;SDS011;20658;45.630;8.886;2023-09-18T14:00:01;35.60;;;20.27;;
34405;SDS011;20658;45.630;8.886;2023-09-18T14:02:37;31.48;;;19.75;;
34405;SDS011;20658;45.630;8.886;2023-09-18T14:05:11;31.08;;;20.65;;
34405;SDS011;20658;45.630;8.886;2023-09-18T14:07:46;31.50;;;19.52;;
34405;SDS011;20658;45.630;8.886;2023-09-18T14:10:20;31.90;;;20.05;;
34405;SDS011;20658;45.630;8.886;2023-09-18T14:12:49;31.40;;;19.60;;
34405;SDS011;20658;45.630;8.886;2023-09-18T14:15:23;37.63;;;22.73;;
34405;SDS011;20658;45.630;8.886;2023-09-18T14:17:51;34.83;;;23.00;;
34405;SDS011;20658;45.630;8.886;2023-09-18T14:20:20;43.03;;;22.77;;
34405;SDS011;20658;45.630;8.886;2023-09-18T14:22:50;36.00;;;21.73;;
34405;SDS011;20658;45.630;8.886;2023-09-18T14:25:24;35.85;;;24.25;;
34405;SDS011;20658;45.630;8.886;2023-09-18T14:27:57;38.65;;;23.33;;
34405;SDS011;20658;45.630;8.886;2023-09-18T14:30:26;38.25;;;25.05;;
34405;SDS011;20658;45.630;8.886;2023-09-18T14:32:58;37.63;;;26.67;;
34405;SDS011;20658;45.630;8.886;2023-09-18T14:35:32;41.35;;;28.45;;
34405;SDS011;20658;45.630;8.886;2023-09-18T14:38:09;43.80;;;30.35;;
34405;SDS011;20658;45.630;8.886;2023-09-18T14:40:46;43.40;;;32.50;;
34405;SDS011;20658;45.630;8.886;2023-09-18T14:43:14;48.75;;;31.15;;
34405;SDS011;20658;45.630;8.886;2023-09-18T14:45:43;47.22;;;33.85;;
34405;SDS011;20658;45.630;8.886;2023-09-18T14:48:12;46.28;;;35.33;;
34405;SDS011;20658;45.630;8.886;2023-09-18T14:50:40;47.50;;;34.75;;
34405;SDS011;20658;45.630;8.886;2023-09-18T14:53:16;50.67;;;36.65;;
34405;SDS011;20658;45.630;8.886;2023-09-18T14:55:44;54.47;;;37.00;;
34405;SDS011;20658;45.630;8.886;2023-09-18T14:58:18;57.83;;;38.53;;
34405;SDS011;20658;45.630;8.886;2023-09-18T15:00:54;55.72;;;38.25;;